createdAt,value
2023-01-08T00:03:55.309Z,100423.00
2023-01-08T00:08:58.323Z,100406.60
2023-01-08T00:14:01.270Z,100398.20
2023-01-08T00:19:04.240Z,100388.20
2023-01-08T00:24:07.367Z,100382.20
2023-01-08T00:29:10.319Z,100380.20
2023-01-08T00:34:13.192Z,100363.80
2023-01-08T00:39:16.116Z,100345.40
2023-01-08T00:44:18.985Z,100337.20
2023-01-08T00:49:21.908Z,100339.60
2023-01-08T00:54:24.765Z,100345.20
2023-01-08T00:59:27.715Z,100343.20
2023-01-08T01:04:30.721Z,100342.00
2023-01-08T01:09:33.706Z,100334.60
2023-01-08T01:14:38.744Z,100335.00
2023-01-08T01:19:41.770Z,100337.00
2023-01-08T01:24:44.762Z,100348.60
2023-01-08T01:29:47.736Z,100353.60
2023-01-08T01:34:50.620Z,100335.20
2023-01-08T01:39:53.863Z,100329.60
2023-01-08T01:44:56.732Z,100328.00
2023-01-08T01:50:13.665Z,100320.60
2023-01-08T01:55:18.594Z,100314.00
2023-01-08T02:00:23.335Z,100306.60
2023-01-08T02:05:37.963Z,100297.20
2023-01-08T02:11:06.876Z,100276.60
2023-01-08T02:16:58.087Z,100273.40
2023-01-08T02:22:40.776Z,100280.40
2023-01-08T02:27:48.986Z,100274.20
2023-01-08T02:32:51.869Z,100271.60
2023-01-08T02:37:54.729Z,100268.80
2023-01-08T02:43:15.143Z,100257.80
2023-01-08T02:48:45.579Z,100261.80
2023-01-08T02:53:54.350Z,100258.00
2023-01-08T02:59:00.269Z,100258.20
2023-01-08T03:04:18.505Z,100249.20
2023-01-08T03:09:21.597Z,100248.80
2023-01-08T03:14:40.160Z,100239.60
2023-01-08T03:20:14.537Z,100233.00
2023-01-08T03:25:21.647Z,100230.80
2023-01-08T03:30:25.773Z,100228.00
2023-01-08T03:35:32.556Z,100227.00
2023-01-08T03:40:47.050Z,100225.80
2023-01-08T03:45:56.901Z,100240.40
2023-01-08T03:51:00.273Z,100237.60
2023-01-08T03:56:03.821Z,100241.60
2023-01-08T04:01:06.859Z,100238.00
2023-01-08T04:06:09.707Z,100235.40
2023-01-08T04:11:12.568Z,100230.40
2023-01-08T04:16:15.623Z,100231.00
2023-01-08T04:21:18.561Z,100223.40
2023-01-08T04:26:21.549Z,100212.40
2023-01-08T04:31:24.501Z,100216.80
2023-01-08T04:36:27.452Z,100222.20
2023-01-08T04:41:30.772Z,100222.60
2023-01-08T04:46:33.795Z,100218.20
2023-01-08T04:51:36.766Z,100221.80
2023-01-08T04:56:39.772Z,100218.80
2023-01-08T05:01:42.802Z,100219.60
2023-01-08T05:06:45.823Z,100203.40
2023-01-08T05:11:51.607Z,100189.60
2023-01-08T05:16:54.530Z,100193.00
2023-01-08T05:21:58.302Z,100181.60
2023-01-08T05:27:01.363Z,100177.20
2023-01-08T05:32:17.028Z,100159.60
2023-01-08T05:37:19.932Z,100171.20
2023-01-08T05:42:22.865Z,100155.20
2023-01-08T05:47:30.788Z,100155.00
2023-01-08T05:52:33.722Z,100153.40
2023-01-08T05:57:39.695Z,100156.80
2023-01-08T06:02:49.153Z,100143.20
2023-01-08T06:07:52.155Z,100135.60
2023-01-08T06:12:56.168Z,100141.00
2023-01-08T06:18:03.551Z,100135.00
2023-01-08T06:23:06.408Z,100120.00
2023-01-08T06:28:09.566Z,100119.20
2023-01-08T06:33:12.479Z,100109.20
2023-01-08T06:38:15.698Z,100109.60
2023-01-08T06:43:23.930Z,100093.80
2023-01-08T06:48:28.270Z,100091.80
2023-01-08T06:53:31.437Z,100094.00
2023-01-08T06:58:40.341Z,100093.80
2023-01-08T07:03:43.950Z,100091.80
2023-01-08T07:08:50.269Z,100072.80
2023-01-08T07:13:53.382Z,100065.00
2023-01-08T07:18:56.491Z,100059.40
2023-01-08T07:23:59.811Z,100050.60
2023-01-08T07:29:02.951Z,100049.60
2023-01-08T07:34:06.358Z,100045.20
2023-01-08T07:39:09.327Z,100036.60
2023-01-08T07:44:15.249Z,100035.20
2023-01-08T07:49:18.271Z,100035.00
2023-01-08T07:54:21.214Z,100039.80
2023-01-08T07:59:24.102Z,100039.60
2023-01-08T08:04:27.126Z,100035.80
2023-01-08T08:09:30.126Z,100042.80
2023-01-08T08:14:33.039Z,100051.80
2023-01-08T08:19:35.932Z,100040.60
2023-01-08T08:24:38.864Z,100048.40
2023-01-08T08:29:41.701Z,100048.00
2023-01-08T08:34:44.665Z,100050.60
2023-01-08T08:39:47.652Z,100046.20
2023-01-08T08:44:50.523Z,100045.40
2023-01-08T08:49:53.402Z,100050.80
2023-01-08T08:54:56.308Z,100052.80
2023-01-08T09:00:01.258Z,100059.80
2023-01-08T09:05:05.454Z,100052.20
2023-01-08T09:10:08.885Z,100040.00
2023-01-08T09:15:11.993Z,100047.40
2023-01-08T09:20:15.088Z,100047.20
2023-01-08T09:25:18.429Z,100040.60
2023-01-08T09:30:21.315Z,100041.00
2023-01-08T09:35:24.263Z,100029.60
2023-01-08T09:40:36.792Z,100021.00
2023-01-08T09:45:40.856Z,100017.80
2023-01-08T09:50:44.332Z,100022.80
2023-01-08T09:56:09.076Z,100013.80
2023-01-08T10:01:17.676Z,99992.40
2023-01-08T10:06:20.677Z,99989.80
2023-01-08T10:11:28.430Z,99974.80
2023-01-08T10:16:38.085Z,99977.60
2023-01-08T10:21:41.469Z,99963.80
2023-01-08T10:26:44.464Z,99953.00
2023-01-08T10:31:57.351Z,99948.80
2023-01-08T10:37:00.795Z,99942.80
2023-01-08T10:42:06.804Z,99931.20
2023-01-08T10:47:18.646Z,99922.00
2023-01-08T10:52:36.431Z,99909.00
2023-01-08T10:57:42.631Z,99904.00
2023-01-08T11:02:50.568Z,99899.60
2023-01-08T11:07:58.508Z,99894.80
2023-01-08T11:13:07.475Z,99890.20
2023-01-08T11:18:21.774Z,99898.80
2023-01-08T11:23:27.723Z,99912.20
2023-01-08T11:28:52.566Z,99908.40
2023-01-08T11:34:06.429Z,99913.40
2023-01-08T11:39:09.788Z,99908.40
2023-01-08T11:44:37.544Z,99903.80
2023-01-08T11:49:56.256Z,99905.80
2023-01-08T11:55:29.573Z,99907.00
2023-01-08T12:00:53.897Z,99904.40
2023-01-08T12:06:11.755Z,99905.60
2023-01-08T12:11:32.706Z,99896.00
2023-01-08T12:17:27.791Z,99884.80
2023-01-08T12:23:06.317Z,99880.60
2023-01-08T12:28:25.686Z,99882.40
2023-01-08T12:33:51.439Z,99871.80
2023-01-08T12:39:08.536Z,99862.40
2023-01-08T12:44:12.460Z,99866.40
2023-01-08T12:49:27.087Z,99848.80
2023-01-08T12:54:46.122Z,99849.40
2023-01-08T13:00:44.256Z,99844.00
2023-01-08T13:05:47.196Z,99827.80
2023-01-08T13:10:54.379Z,99813.60
2023-01-08T13:16:12.042Z,99814.80
2023-01-08T13:21:15.229Z,99820.20
2023-01-08T13:26:31.693Z,99811.20
2023-01-08T13:31:43.436Z,99808.40
2023-01-08T13:36:57.823Z,99796.60
2023-01-08T13:42:22.026Z,99776.20
2023-01-08T13:47:35.377Z,99774.80
2023-01-08T13:52:47.897Z,99764.20
2023-01-08T13:57:59.581Z,99763.20
2023-01-08T14:03:02.603Z,99765.60
2023-01-08T14:08:05.850Z,99774.20
2023-01-08T14:13:09.480Z,99794.00
2023-01-08T14:18:14.338Z,99787.00
2023-01-08T14:23:37.281Z,99784.80
2023-01-08T14:28:40.204Z,99788.60
2023-01-08T14:33:43.321Z,99783.40
2023-01-08T14:38:50.863Z,99770.40
2023-01-08T14:43:53.826Z,99762.80
2023-01-08T14:48:57.599Z,99762.80
2023-01-08T14:54:06.433Z,99751.40
2023-01-08T14:59:12.206Z,99736.20
2023-01-08T15:04:21.869Z,99736.40
2023-01-08T15:09:33.367Z,99744.60
2023-01-08T15:14:37.292Z,99725.80
2023-01-08T15:19:48.453Z,99709.00
2023-01-08T15:25:01.709Z,99715.20
2023-01-08T15:30:23.770Z,99717.00
2023-01-08T15:35:26.659Z,99715.60
2023-01-08T15:40:29.715Z,99714.40
2023-01-08T15:45:32.798Z,99710.60
2023-01-08T15:50:40.014Z,99702.20
2023-01-08T15:55:44.485Z,99703.60
2023-01-08T16:00:47.547Z,99699.60
2023-01-08T16:05:50.424Z,99685.60
2023-01-08T16:10:53.423Z,99698.40
2023-01-08T16:15:56.394Z,99705.20
2023-01-08T16:21:02.204Z,99711.80
2023-01-08T16:26:14.063Z,99698.00
2023-01-08T16:31:17.015Z,99702.60
2023-01-08T16:36:19.949Z,99710.60
2023-01-08T16:41:22.895Z,99711.40
2023-01-08T16:46:26.888Z,99717.00
2023-01-08T16:51:31.218Z,99722.80
2023-01-08T16:56:34.157Z,99705.80
2023-01-08T17:01:37.166Z,99714.00
2023-01-08T17:06:40.099Z,99711.40
2023-01-08T17:11:43.454Z,99700.60
2023-01-08T17:16:47.682Z,99703.20
2023-01-08T17:21:51.141Z,99710.40
2023-01-08T17:26:53.996Z,99707.40
2023-01-08T17:31:56.863Z,99693.80
2023-01-08T17:36:59.730Z,99685.80
2023-01-08T17:42:21.342Z,99677.40
2023-01-08T17:47:26.111Z,99667.20
2023-01-08T17:52:29.019Z,99659.60
2023-01-08T17:57:31.954Z,99651.80
2023-01-08T18:02:35.064Z,99649.00
2023-01-08T18:07:38.175Z,99640.20
2023-01-08T18:12:41.015Z,99644.40
2023-01-08T18:17:43.917Z,99636.80
2023-01-08T18:22:46.904Z,99641.20
2023-01-08T18:27:49.764Z,99635.60
2023-01-08T18:32:52.622Z,99640.20
2023-01-08T18:37:57.056Z,99654.20
2023-01-08T18:42:59.907Z,99670.20
2023-01-08T18:48:02.870Z,99677.00
2023-01-08T18:53:06.357Z,99674.60
2023-01-08T18:58:09.301Z,99666.40
2023-01-08T19:03:12.421Z,99651.60
2023-01-08T19:09:02.513Z,99653.60
2023-01-08T19:14:05.458Z,99654.00
2023-01-08T19:19:08.301Z,99653.20
2023-01-08T19:24:11.363Z,99656.00
2023-01-08T19:29:14.363Z,99655.20
2023-01-08T19:34:17.226Z,99660.20
2023-01-08T19:39:20.105Z,99652.00
2023-01-08T19:44:23.525Z,99652.60
2023-01-08T19:49:26.538Z,99648.80
2023-01-08T19:54:29.673Z,99626.40
2023-01-08T19:59:32.601Z,99616.60
2023-01-08T20:04:40.271Z,99615.00
2023-01-08T20:09:43.912Z,99617.80
2023-01-08T20:14:48.060Z,99610.20
2023-01-08T20:19:52.590Z,99608.40
2023-01-08T20:24:57.622Z,99603.00
2023-01-08T20:30:01.869Z,99604.20
2023-01-08T20:35:05.340Z,99600.60
2023-01-08T20:40:09.191Z,99596.40
2023-01-08T20:45:12.326Z,99582.40
2023-01-08T20:50:19.999Z,99586.60
2023-01-08T20:55:23.456Z,99582.80
2023-01-08T21:00:26.447Z,99571.60
2023-01-08T21:05:30.304Z,99561.80
2023-01-08T21:10:34.368Z,99540.00
2023-01-08T21:15:37.724Z,99541.00
2023-01-08T21:20:40.583Z,99544.80
2023-01-08T21:25:43.434Z,99536.40
2023-01-08T21:30:46.310Z,99527.80
2023-01-08T21:35:49.290Z,99539.20
2023-01-08T21:41:04.307Z,99535.20
2023-01-08T21:46:07.236Z,99525.60
2023-01-08T21:51:30.560Z,99533.40
2023-01-08T21:56:33.513Z,99500.00
2023-01-08T22:01:36.415Z,99517.60
2023-01-08T22:06:39.329Z,99520.20
2023-01-08T22:11:42.173Z,99484.20
2023-01-08T22:16:45.095Z,99481.20
2023-01-08T22:21:48.268Z,99486.00
2023-01-08T22:26:51.184Z,99492.20
2023-01-08T22:31:54.080Z,99491.40
2023-01-08T22:36:57.340Z,99469.60
2023-01-08T22:42:00.546Z,99472.80
2023-01-08T22:47:03.554Z,99466.40
2023-01-08T22:52:07.365Z,99455.40
2023-01-08T22:57:10.388Z,99430.00
2023-01-08T23:02:13.245Z,99433.20
2023-01-08T23:07:16.081Z,99438.00
2023-01-08T23:12:19.038Z,99417.80
2023-01-08T23:17:21.884Z,99397.80
2023-01-08T23:22:24.804Z,99397.00
2023-01-08T23:27:30.933Z,99380.80
2023-01-08T23:32:33.765Z,99367.60
2023-01-08T23:37:36.640Z,99365.00
2023-01-08T23:42:39.610Z,99335.80
2023-01-08T23:47:42.460Z,99312.20
2023-01-08T23:52:45.346Z,99322.80
2023-01-08T23:57:48.851Z,99311.20
